Time;durP1;ratioP1;P1;durP2;ratioP2;P2;SDS_P1;SDS_P2;PMS_P1;PMS_P2;Temp;Humidity;BMP_temperature;BMP_pressure;BME280_temperature;BME280_humidity;BME280_pressure;Samples;Min_cycle;Max_cycle;Signal;HPM_P1;HPM_P2
2022/12/09 00:08:59;;;;;;;5.23;3.80;;;;;;;20.85;54.06;99799.97;20743784;28;20050;-79
2022/12/09 00:19:01;;;;;;;5.88;4.15;;;;;;;20.86;54.23;99780.59;20768836;28;20041;-80
2022/12/09 00:29:01;;;;;;;5.75;4.03;;;;;;;20.81;54.23;99811.72;20748909;28;20050;-79
2022/12/09 00:39:02;;;;;;;4.88;4.05;;;;;;;20.82;54.16;99816.00;20754949;28;20505;-81
2022/12/09 00:49:03;;;;;;;5.53;3.95;;;;;;;20.81;54.18;99808.25;20756639;28;20049;-80
2022/12/09 00:59:04;;;;;;;5.13;4.15;;;;;;;20.78;54.25;99796.19;20742150;28;20041;-80
2022/12/09 01:09:05;;;;;;;9.00;3.75;;;;;;;20.76;53.75;99816.53;20755771;28;20370;-80
2022/12/09 01:19:07;;;;;;;5.82;4.10;;;;;;;20.73;54.03;99809.75;20749311;28;20041;-80
2022/12/09 01:29:08;;;;;;;6.67;4.03;;;;;;;20.72;53.80;99809.88;20750549;28;20076;-80
2022/12/09 01:39:09;;;;;;;5.93;3.80;;;;;;;20.72;53.73;99799.34;20744247;28;20046;-80
2022/12/09 01:49:15;;;;;;;5.68;4.25;;;;;;;20.71;53.90;99789.75;20757411;28;20052;-79
2022/12/09 01:59:16;;;;;;;4.72;3.80;;;;;;;20.70;53.76;99790.72;20740118;28;20072;-77
2022/12/09 02:09:16;;;;;;;5.20;4.32;;;;;;;20.68;53.70;99792.63;20744406;28;20076;-79
2022/12/09 02:19:43;;;;;;;4.90;3.78;;;;;;;20.67;53.46;99786.56;20741838;28;20041;-77
2022/12/09 02:29:51;;;;;;;4.70;3.88;;;;;;;20.68;53.81;99774.22;20720946;28;20742;-78
2022/12/09 02:39:53;;;;;;;5.10;4.20;;;;;;;20.63;53.92;99767.56;20746133;28;20046;-78
2022/12/09 02:49:59;;;;;;;5.70;4.27;;;;;;;20.64;53.43;99768.38;20749148;28;20091;-79
2022/12/09 03:00:00;;;;;;;5.32;4.00;;;;;;;20.63;53.75;99759.69;20726584;28;20295;-78
2022/12/09 03:10:07;;;;;;;5.93;4.47;;;;;;;20.62;53.54;99763.25;20736624;28;20045;-78
2022/12/09 03:20:23;;;;;;;4.93;4.15;;;;;;;20.61;53.68;99753.69;20745865;28;20516;-79
2022/12/09 03:30:24;;;;;;;5.35;4.13;;;;;;;20.62;53.43;99772.97;20768270;28;20049;-79
2022/12/09 03:40:28;;;;;;;4.97;3.92;;;;;;;20.59;53.52;99768.81;20746606;28;20147;-78
2022/12/09 03:50:34;;;;;;;4.72;3.90;;;;;;;20.59;53.26;99754.78;20752358;28;20112;-78
2022/12/09 04:00:36;;;;;;;5.22;4.13;;;;;;;20.58;53.52;99768.91;20741810;28;20565;-77
2022/12/09 04:10:37;;;;;;;4.93;4.23;;;;;;;20.62;53.39;99765.06;20743860;28;20046;-78
2022/12/09 04:20:37;;;;;;;5.18;3.80;;;;;;;20.60;53.19;99745.94;20748148;28;20586;-77
2022/12/09 04:30:42;;;;;;;6.45;4.35;;;;;;;20.60;53.58;99741.53;20758105;28;20392;-78
2022/12/09 04:40:43;;;;;;;5.22;4.00;;;;;;;20.57;53.51;99739.16;20755540;28;20049;-78
2022/12/09 04:50:43;;;;;;;5.97;4.60;;;;;;;20.58;53.70;99725.03;20729743;28;20161;-78
2022/12/09 05:00:44;;;;;;;5.32;3.85;;;;;;;20.57;53.48;99735.69;20723483;28;20060;-76
2022/12/09 05:10:49;;;;;;;5.03;4.00;;;;;;;20.54;53.28;99730.69;20744632;28;20061;-77
2022/12/09 05:20:49;;;;;;;7.40;3.78;;;;;;;20.60;53.80;99735.44;20704228;28;20064;-79
2022/12/09 05:30:50;;;;;;;19.58;6.32;;;;;;;20.74;54.43;99742.19;20727199;28;20046;-79
2022/12/09 05:40:51;;;;;;;18.73;6.68;;;;;;;20.87;54.46;99739.31;20726587;28;20046;-79
2022/12/09 05:50:58;;;;;;;16.73;6.53;;;;;;;20.95;54.48;99721.06;20738184;28;20049;-78
2022/12/09 06:01:05;;;;;;;20.17;6.13;;;;;;;21.01;54.52;99707.38;20724812;28;20049;-77
2022/12/09 06:11:20;;;;;;;17.92;7.78;;;;;;;21.04;52.58;99708.91;20723097;28;20654;-79
2022/12/09 06:21:21;;;;;;;28.90;7.05;;;;;;;21.11;52.74;99710.84;20743710;28;20175;-80
2022/12/09 06:31:22;;;;;;;23.67;7.70;;;;;;;21.18;53.26;99703.25;20757954;28;20034;-80
2022/12/09 06:41:22;;;;;;;14.85;8.23;;;;;;;21.20;52.91;99698.69;20734479;28;20136;-80
2022/12/09 06:51:24;;;;;;;18.58;7.43;;;;;;;21.28;53.01;99708.53;20734520;28;20053;-80
2022/12/09 07:01:25;;;;;;;12.40;6.27;;;;;;;21.34;53.05;99697.47;20748126;28;20460;-82
2022/12/09 07:11:26;;;;;;;12.50;6.63;;;;;;;21.39;52.70;99699.69;20737821;28;20054;-82
2022/12/09 07:21:28;;;;;;;12.43;6.35;;;;;;;21.40;52.64;99683.75;20752268;28;20060;-81
2022/12/09 07:31:28;;;;;;;10.43;6.15;;;;;;;21.47;53.10;99676.13;20771573;28;20129;-81
2022/12/09 07:41:29;;;;;;;10.57;5.88;;;;;;;21.51;52.85;99685.41;20747740;28;20076;-78
2022/12/09 07:51:30;;;;;;;10.35;5.90;;;;;;;21.55;52.96;99675.44;20732380;28;21353;-78
2022/12/09 08:01:30;;;;;;;8.68;5.80;;;;;;;21.58;52.54;99677.81;20741127;28;20496;-78
2022/12/09 08:11:31;;;;;;;9.35;5.63;;;;;;;21.61;52.43;99663.56;20746250;28;20061;-79
2022/12/09 08:21:32;;;;;;;10.73;6.07;;;;;;;21.62;52.00;99644.97;20751873;28;20045;-81
2022/12/09 08:31:32;;;;;;;9.73;6.45;;;;;;;21.63;52.07;99648.41;20758523;28;20057;-81
2022/12/09 08:41:34;;;;;;;8.93;6.03;;;;;;;21.64;51.98;99637.75;20737224;28;20117;-77
2022/12/09 08:51:36;;;;;;;10.03;5.70;;;;;;;21.59;51.02;99627.63;20741890;28;20132;-77
2022/12/09 09:01:37;;;;;;;8.63;5.95;;;;;;;21.58;51.21;99618.06;20737001;28;20037;-77
2022/12/09 09:11:38;;;;;;;11.35;6.38;;;;;;;21.52;51.02;99596.69;20743103;28;21452;-77
2022/12/09 09:21:38;;;;;;;9.98;6.55;;;;;;;21.44;50.68;99587.66;20749516;28;20075;-77
2022/12/09 09:31:39;;;;;;;11.95;8.10;;;;;;;21.38;50.61;99580.34;20750204;28;20049;-78
2022/12/09 09:42:00;;;;;;;9.27;6.18;;;;;;;21.37;49.97;99568.16;20750385;28;20050;-77
2022/12/09 09:52:13;;;;;;;11.00;7.40;;;;;;;21.34;50.09;99564.97;20743914;28;20563;-77
2022/12/09 10:02:33;;;;;;;9.17;6.10;;;;;;;21.30;50.15;99551.25;20742069;28;20493;-77
2022/12/09 10:12:57;;;;;;;11.30;7.10;;;;;;;21.24;50.12;99528.94;20733113;28;20276;-77
2022/12/09 10:23:00;;;;;;;9.20;6.88;;;;;;;21.22;49.75;99509.00;20750975;28;20425;-77
2022/12/09 10:33:01;;;;;;;9.15;6.50;;;;;;;21.30;49.98;99468.78;20732666;28;20133;-79
2022/12/09 10:43:37;;;;;;;14.75;7.30;;;;;;;21.33;49.38;99436.91;20760039;28;20033;-80
2022/12/09 10:53:46;;;;;;;7.93;6.15;;;;;;;21.35;49.89;99406.81;20757614;28;20036;-80
2022/12/09 11:03:54;;;;;;;10.13;6.20;;;;;;;21.39;50.48;99391.56;20759934;28;20061;-83
2022/12/09 11:13:55;;;;;;;8.73;6.40;;;;;;;21.39;50.39;99378.41;20762055;28;20046;-83
2022/12/09 11:23:55;;;;;;;11.13;6.05;;;;;;;21.37;50.22;99349.59;20740940;28;20053;-82
2022/12/09 11:34:00;;;;;;;10.55;6.80;;;;;;;21.37;50.36;99359.28;20735529;28;20049;-85
2022/12/09 11:44:11;;;;;;;9.65;7.05;;;;;;;21.39;50.74;99352.06;20784883;28;20045;-85
2022/12/09 11:54:24;;;;;;;11.15;7.38;;;;;;;21.38;50.42;99332.78;20777531;28;20057;-83
2022/12/09 12:04:43;;;;;;;15.18;7.47;;;;;;;21.37;50.64;99336.44;20760129;28;20038;-82
2022/12/09 12:14:44;;;;;;;11.02;7.82;;;;;;;21.38;50.69;99303.00;20794982;28;20038;-82
2022/12/09 12:25:03;;;;;;;10.88;7.72;;;;;;;21.26;51.26;99305.84;20741182;28;20046;-81
2022/12/09 12:35:15;;;;;;;11.63;7.93;;;;;;;21.31;51.51;99289.59;20741456;28;20042;-81
2022/12/09 12:55:54;;;;;;;13.88;8.07;;;;;;;21.37;51.23;99270.59;20765256;28;20053;-86
2022/12/09 13:05:57;;;;;;;12.73;8.27;;;;;;;21.39;50.83;99268.63;20746730;28;20131;-85
2022/12/09 13:16:05;;;;;;;17.15;8.40;;;;;;;21.34;51.14;99251.63;20755388;28;20424;-82
2022/12/09 13:26:39;;;;;;;13.77;7.95;;;;;;;21.38;50.83;99239.81;20790370;28;20064;-91
2022/12/09 13:36:41;;;;;;;15.30;8.00;;;;;;;21.39;50.87;99255.44;20799038;28;20169;-85
2022/12/09 13:46:42;;;;;;;31.88;12.20;;;;;;;20.50;41.94;99227.00;20754467;28;20068;-86
2022/12/09 13:56:59;;;;;;;81.18;17.77;;;;;;;19.69;36.81;99226.38;20743310;28;20151;-85
2022/12/09 14:07:12;;;;;;;52.05;13.60;;;;;;;20.53;40.48;99218.81;20746467;28;20073;-86
2022/12/09 14:17:29;;;;;;;41.10;11.95;;;;;;;20.77;45.24;99207.84;20736212;28;20156;-86
2022/12/09 14:27:31;;;;;;;42.00;10.77;;;;;;;20.87;47.52;99181.47;20765849;28;20108;-87
2022/12/09 14:37:44;;;;;;;28.70;9.88;;;;;;;20.96;47.44;99188.50;20771819;28;20057;-84
2022/12/09 14:47:48;;;;;;;28.73;9.25;;;;;;;20.94;47.64;99154.41;20729809;28;20049;-82
2022/12/09 14:57:51;;;;;;;20.08;8.20;;;;;;;21.04;48.97;99151.72;20773816;28;20496;-79
2022/12/09 15:07:51;;;;;;;20.10;8.90;;;;;;;21.06;48.67;99123.47;20751376;28;20124;-80
2022/12/09 15:18:06;;;;;;;19.05;8.10;;;;;;;21.04;48.96;99116.69;20752538;28;20030;-80
2022/12/09 15:28:16;;;;;;;20.23;7.93;;;;;;;21.13;50.38;99113.19;20717190;28;20068;-79
2022/12/09 15:38:17;;;;;;;18.55;7.93;;;;;;;21.10;50.76;99109.06;20724983;28;20084;-77
2022/12/09 15:48:21;;;;;;;22.50;8.23;;;;;;;21.03;50.85;99086.09;20711033;28;20042;-74
2022/12/09 15:58:26;;;;;;;18.55;7.78;;;;;;;21.02;50.48;99050.22;20737527;28;20046;-77
2022/12/09 16:08:39;;;;;;;13.00;7.60;;;;;;;21.05;50.60;99058.66;20727656;28;20401;-75
2022/12/09 16:18:48;;;;;;;12.88;7.38;;;;;;;21.02;50.69;99035.28;20723259;28;20177;-74
2022/12/09 16:29:00;;;;;;;11.63;6.80;;;;;;;21.00;50.80;99024.06;20736514;28;20053;-77
2022/12/09 16:39:07;;;;;;;13.63;7.50;;;;;;;21.01;50.62;99009.13;20751211;28;20041;-76
2022/12/09 16:49:07;;;;;;;11.35;6.43;;;;;;;20.98;50.72;98991.81;20741176;28;20050;-77
2022/12/09 16:59:10;;;;;;;11.20;6.55;;;;;;;20.93;50.34;98970.38;20744627;28;20119;-75
2022/12/09 17:09:10;;;;;;;13.27;7.17;;;;;;;20.90;50.55;98953.09;20740010;28;20145;-75
2022/12/09 17:19:11;;;;;;;12.30;6.75;;;;;;;20.91;50.36;98946.88;20742720;28;20029;-77
2022/12/09 17:29:12;;;;;;;10.27;6.50;;;;;;;20.90;50.68;98925.97;20741060;28;20056;-74
2022/12/09 17:39:13;;;;;;;10.30;6.18;;;;;;;20.88;50.63;98906.88;20755324;28;20049;-76
2022/12/09 17:49:14;;;;;;;9.23;5.90;;;;;;;20.87;50.46;98899.97;20727282;28;20180;-75
2022/12/09 17:59:16;;;;;;;11.13;6.88;;;;;;;20.86;50.77;98919.34;20734938;28;20051;-75
2022/12/09 18:09:18;;;;;;;8.50;5.50;;;;;;;20.84;50.25;98893.19;20743110;28;20042;-76
2022/12/09 18:19:22;;;;;;;10.20;6.07;;;;;;;20.83;50.47;98864.44;20747060;28;20075;-77
2022/12/09 18:29:29;;;;;;;7.13;5.65;;;;;;;20.81;50.35;98861.13;20748341;28;20129;-78
2022/12/09 18:39:30;;;;;;;8.60;5.80;;;;;;;20.79;50.52;98863.91;20735522;28;20111;-80
2022/12/09 18:49:32;;;;;;;8.00;5.40;;;;;;;20.83;51.71;98835.50;20724642;28;20045;-79
2022/12/09 18:59:32;;;;;;;10.45;5.32;;;;;;;20.86;51.96;98840.41;20745583;28;20068;-82
2022/12/09 19:09:52;;;;;;;12.02;5.25;;;;;;;20.87;52.79;98845.56;20734894;28;20436;-78
2022/12/09 19:19:54;;;;;;;10.35;5.40;;;;;;;20.90;52.45;98812.84;20753644;28;20045;-87
2022/12/09 19:29:56;;;;;;;8.37;4.70;;;;;;;20.90;52.51;98807.59;20761490;28;20107;-79
2022/12/09 19:39:57;;;;;;;12.35;4.90;;;;;;;20.84;52.94;98795.88;20743421;28;20092;-81
2022/12/09 19:49:57;;;;;;;7.35;4.38;;;;;;;20.81;53.32;98780.38;20727204;28;20054;-79
2022/12/09 19:59:58;;;;;;;7.60;4.65;;;;;;;20.82;53.43;98747.81;20719706;28;20096;-79
2022/12/09 20:09:59;;;;;;;8.27;4.53;;;;;;;20.87;53.92;98757.88;20734497;28;20144;-78
2022/12/09 20:20:01;;;;;;;13.15;4.68;;;;;;;20.83;53.97;98748.69;20767826;28;20052;-84
2022/12/09 20:30:02;;;;;;;13.35;4.90;;;;;;;20.83;53.24;98741.59;20747253;28;20042;-86
2022/12/09 20:40:03;;;;;;;22.23;4.88;;;;;;;20.73;53.23;98715.41;20776255;28;20053;-84
2022/12/09 20:50:05;;;;;;;10.63;5.03;;;;;;;20.75;53.20;98691.56;20776754;28;20651;-84
2022/12/09 21:00:07;;;;;;;8.77;4.40;;;;;;;20.74;53.62;98671.53;20762772;28;20073;-83
2022/12/09 21:10:08;;;;;;;6.18;3.80;;;;;;;20.73;53.59;98691.72;20762686;28;20452;-84
2022/12/09 21:20:12;;;;;;;9.93;4.20;;;;;;;20.73;53.43;98701.44;20765436;28;20091;-83
2022/12/09 21:30:12;;;;;;;8.85;4.20;;;;;;;20.70;53.49;98693.81;20793487;28;20041;-84
2022/12/09 21:40:13;;;;;;;7.70;3.95;;;;;;;20.73;53.41;98689.09;20761762;28;20049;-84
2022/12/09 21:50:14;;;;;;;6.55;4.32;;;;;;;20.76;53.56;98701.09;20755437;28;20049;-83
2022/12/09 22:00:15;;;;;;;6.45;4.22;;;;;;;20.77;53.94;98698.31;20734892;28;20463;-84
2022/12/09 22:10:15;;;;;;;9.30;4.57;;;;;;;20.74;53.98;98692.56;20737121;28;20409;-84
2022/12/09 22:20:16;;;;;;;6.63;4.30;;;;;;;20.72;53.88;98679.56;20738982;28;25650;-84
2022/12/09 22:30:16;;;;;;;8.80;4.22;;;;;;;20.72;53.52;98681.38;20737285;28;20052;-82
2022/12/09 22:40:17;;;;;;;6.97;4.35;;;;;;;20.69;53.70;98673.75;20742843;28;20124;-82
2022/12/09 22:50:17;;;;;;;6.43;4.43;;;;;;;20.66;54.02;98671.44;20736601;28;20040;-82
2022/12/09 23:00:18;;;;;;;6.22;4.38;;;;;;;20.64;53.98;98682.94;20736044;28;20270;-83
2022/12/09 23:10:18;;;;;;;6.25;4.32;;;;;;;20.68;53.90;98682.63;20734509;28;22322;-83
2022/12/09 23:20:21;;;;;;;5.60;3.97;;;;;;;20.69;53.86;98684.28;20735383;28;20057;-84
2022/12/09 23:30:21;;;;;;;6.07;4.03;;;;;;;20.67;53.90;98667.84;20729738;28;20046;-84
2022/12/09 23:40:21;;;;;;;5.70;3.83;;;;;;;20.65;54.18;98673.25;20739219;28;20053;-84
2022/12/09 23:50:22;;;;;;;6.90;4.70;;;;;;;20.63;54.10;98681.28;20742309;28;20042;-84
